sensor_id;sensor_type;location;lat;lon;timestamp;P1;durP1;ratioP1;P2;durP2;ratioP2
18983;SDS011;9626;52.552;13.436;2022-11-12T00:01:24;7.37;;;5.20;;
18983;SDS011;9626;52.552;13.436;2022-11-12T00:04:09;10.03;;;5.50;;
18983;SDS011;9626;52.552;13.436;2022-11-12T00:06:53;7.20;;;4.70;;
18983;SDS011;9626;52.552;13.436;2022-11-12T00:09:37;8.37;;;4.33;;
18983;SDS011;9626;52.552;13.436;2022-11-12T00:12:22;8.47;;;4.37;;
18983;SDS011;9626;52.552;13.436;2022-11-12T00:15:06;8.03;;;4.63;;
18983;SDS011;9626;52.552;13.436;2022-11-12T00:17:51;9.57;;;5.10;;
18983;SDS011;9626;52.552;13.436;2022-11-12T00:20:35;11.10;;;4.93;;
18983;SDS011;9626;52.552;13.436;2022-11-12T00:23:20;5.77;;;4.37;;
18983;SDS011;9626;52.552;13.436;2022-11-12T00:26:04;7.60;;;4.93;;
18983;SDS011;9626;52.552;13.436;2022-11-12T00:28:48;7.47;;;4.07;;
18983;SDS011;9626;52.552;13.436;2022-11-12T00:31:32;7.47;;;4.30;;
18983;SDS011;9626;52.552;13.436;2022-11-12T00:34:17;5.60;;;3.90;;
18983;SDS011;9626;52.552;13.436;2022-11-12T00:37:02;5.93;;;4.20;;
18983;SDS011;9626;52.552;13.436;2022-11-12T00:39:46;6.13;;;4.47;;
18983;SDS011;9626;52.552;13.436;2022-11-12T00:42:31;10.03;;;3.90;;
18983;SDS011;9626;52.552;13.436;2022-11-12T00:45:15;6.93;;;4.10;;
18983;SDS011;9626;52.552;13.436;2022-11-12T00:47:59;5.80;;;3.93;;
18983;SDS011;9626;52.552;13.436;2022-11-12T00:50:43;8.23;;;4.90;;
18983;SDS011;9626;52.552;13.436;2022-11-12T00:53:28;6.53;;;4.07;;
18983;SDS011;9626;52.552;13.436;2022-11-12T00:56:12;6.13;;;4.07;;
18983;SDS011;9626;52.552;13.436;2022-11-12T00:58:57;6.37;;;4.27;;
18983;SDS011;9626;52.552;13.436;2022-11-12T01:01:42;5.93;;;4.07;;
18983;SDS011;9626;52.552;13.436;2022-11-12T01:04:26;8.13;;;4.30;;
18983;SDS011;9626;52.552;13.436;2022-11-12T01:07:11;6.03;;;3.70;;
18983;SDS011;9626;52.552;13.436;2022-11-12T01:09:55;7.93;;;3.90;;
18983;SDS011;9626;52.552;13.436;2022-11-12T01:12:40;5.37;;;3.83;;
18983;SDS011;9626;52.552;13.436;2022-11-12T01:15:24;6.70;;;3.90;;
18983;SDS011;9626;52.552;13.436;2022-11-12T01:18:08;5.83;;;3.90;;
18983;SDS011;9626;52.552;13.436;2022-11-12T01:20:53;6.50;;;3.77;;
18983;SDS011;9626;52.552;13.436;2022-11-12T01:23:39;7.10;;;4.40;;
18983;SDS011;9626;52.552;13.436;2022-11-12T01:26:25;4.03;;;3.47;;
18983;SDS011;9626;52.552;13.436;2022-11-12T01:29:14;4.60;;;3.50;;
18983;SDS011;9626;52.552;13.436;2022-11-12T01:31:58;5.93;;;3.83;;
18983;SDS011;9626;52.552;13.436;2022-11-12T01:34:43;6.37;;;4.20;;
18983;SDS011;9626;52.552;13.436;2022-11-12T01:37:27;6.00;;;3.40;;
18983;SDS011;9626;52.552;13.436;2022-11-12T01:40:11;5.37;;;3.40;;
18983;SDS011;9626;52.552;13.436;2022-11-12T01:42:56;6.83;;;4.00;;
18983;SDS011;9626;52.552;13.436;2022-11-12T01:45:41;6.67;;;4.00;;
18983;SDS011;9626;52.552;13.436;2022-11-12T01:51:15;5.83;;;3.60;;
18983;SDS011;9626;52.552;13.436;2022-11-12T01:54:03;4.93;;;3.17;;
18983;SDS011;9626;52.552;13.436;2022-11-12T01:56:50;6.23;;;3.80;;
18983;SDS011;9626;52.552;13.436;2022-11-12T01:59:37;6.33;;;3.70;;
18983;SDS011;9626;52.552;13.436;2022-11-12T02:02:25;7.73;;;4.10;;
18983;SDS011;9626;52.552;13.436;2022-11-12T02:05:10;6.57;;;4.90;;
18983;SDS011;9626;52.552;13.436;2022-11-12T02:07:56;8.27;;;4.23;;
18983;SDS011;9626;52.552;13.436;2022-11-12T02:10:43;7.87;;;3.87;;
18983;SDS011;9626;52.552;13.436;2022-11-12T02:13:27;7.03;;;4.40;;
18983;SDS011;9626;52.552;13.436;2022-11-12T02:19:26;5.73;;;3.93;;
18983;SDS011;9626;52.552;13.436;2022-11-12T02:22:11;7.20;;;3.83;;
18983;SDS011;9626;52.552;13.436;2022-11-12T02:24:55;5.07;;;3.47;;
18983;SDS011;9626;52.552;13.436;2022-11-12T02:27:40;7.03;;;3.83;;
18983;SDS011;9626;52.552;13.436;2022-11-12T02:33:23;6.07;;;3.80;;
18983;SDS011;9626;52.552;13.436;2022-11-12T02:36:08;5.40;;;3.37;;
18983;SDS011;9626;52.552;13.436;2022-11-12T02:38:52;6.53;;;3.70;;
18983;SDS011;9626;52.552;13.436;2022-11-12T02:41:37;5.33;;;3.13;;
18983;SDS011;9626;52.552;13.436;2022-11-12T02:44:21;5.00;;;3.50;;
18983;SDS011;9626;52.552;13.436;2022-11-12T02:47:06;4.97;;;3.30;;
18983;SDS011;9626;52.552;13.436;2022-11-12T02:49:50;5.13;;;3.63;;
18983;SDS011;9626;52.552;13.436;2022-11-12T02:52:34;8.30;;;4.03;;
18983;SDS011;9626;52.552;13.436;2022-11-12T02:55:19;7.40;;;4.00;;
18983;SDS011;9626;52.552;13.436;2022-11-12T02:58:03;6.70;;;3.37;;
18983;SDS011;9626;52.552;13.436;2022-11-12T03:00:48;8.33;;;3.93;;
18983;SDS011;9626;52.552;13.436;2022-11-12T03:03:33;5.33;;;3.70;;
18983;SDS011;9626;52.552;13.436;2022-11-12T03:06:17;5.47;;;3.50;;
18983;SDS011;9626;52.552;13.436;2022-11-12T03:09:01;8.30;;;4.03;;
18983;SDS011;9626;52.552;13.436;2022-11-12T03:11:46;4.53;;;3.67;;
18983;SDS011;9626;52.552;13.436;2022-11-12T03:14:30;6.73;;;3.80;;
18983;SDS011;9626;52.552;13.436;2022-11-12T03:17:15;6.73;;;3.30;;
18983;SDS011;9626;52.552;13.436;2022-11-12T03:19:59;5.43;;;3.63;;
18983;SDS011;9626;52.552;13.436;2022-11-12T03:22:53;7.43;;;3.90;;
18983;SDS011;9626;52.552;13.436;2022-11-12T03:25:42;4.90;;;3.63;;
18983;SDS011;9626;52.552;13.436;2022-11-12T03:28:26;4.63;;;2.93;;
18983;SDS011;9626;52.552;13.436;2022-11-12T03:31:10;5.77;;;3.40;;
18983;SDS011;9626;52.552;13.436;2022-11-12T03:33:55;10.10;;;3.73;;
18983;SDS011;9626;52.552;13.436;2022-11-12T03:36:39;5.00;;;3.47;;
18983;SDS011;9626;52.552;13.436;2022-11-12T03:39:24;7.67;;;3.63;;
18983;SDS011;9626;52.552;13.436;2022-11-12T03:42:08;8.00;;;3.70;;
18983;SDS011;9626;52.552;13.436;2022-11-12T03:44:52;4.97;;;3.57;;
18983;SDS011;9626;52.552;13.436;2022-11-12T03:47:49;5.83;;;3.60;;
18983;SDS011;9626;52.552;13.436;2022-11-12T03:50:35;5.13;;;3.57;;
18983;SDS011;9626;52.552;13.436;2022-11-12T03:53:19;7.17;;;3.50;;
18983;SDS011;9626;52.552;13.436;2022-11-12T03:56:04;5.53;;;3.27;;
18983;SDS011;9626;52.552;13.436;2022-11-12T03:58:48;6.80;;;3.63;;
18983;SDS011;9626;52.552;13.436;2022-11-12T04:01:32;6.00;;;3.23;;
18983;SDS011;9626;52.552;13.436;2022-11-12T04:04:17;5.00;;;3.67;;
18983;SDS011;9626;52.552;13.436;2022-11-12T04:07:01;5.23;;;3.57;;
18983;SDS011;9626;52.552;13.436;2022-11-12T04:10:05;7.33;;;3.70;;
18983;SDS011;9626;52.552;13.436;2022-11-12T04:12:49;5.53;;;3.73;;
18983;SDS011;9626;52.552;13.436;2022-11-12T04:15:53;9.43;;;3.70;;
18983;SDS011;9626;52.552;13.436;2022-11-12T04:19:04;7.70;;;4.37;;
18983;SDS011;9626;52.552;13.436;2022-11-12T04:22:09;5.43;;;3.63;;
18983;SDS011;9626;52.552;13.436;2022-11-12T04:24:54;5.60;;;3.37;;
18983;SDS011;9626;52.552;13.436;2022-11-12T04:27:57;4.70;;;3.57;;
18983;SDS011;9626;52.552;13.436;2022-11-12T04:30:41;5.50;;;3.90;;
18983;SDS011;9626;52.552;13.436;2022-11-12T04:33:26;4.33;;;3.67;;
18983;SDS011;9626;52.552;13.436;2022-11-12T04:36:10;7.13;;;4.30;;
18983;SDS011;9626;52.552;13.436;2022-11-12T04:38:55;4.80;;;3.03;;
18983;SDS011;9626;52.552;13.436;2022-11-12T04:41:39;4.67;;;3.40;;
18983;SDS011;9626;52.552;13.436;2022-11-12T04:44:42;5.57;;;3.77;;
18983;SDS011;9626;52.552;13.436;2022-11-12T04:47:46;9.13;;;3.90;;
18983;SDS011;9626;52.552;13.436;2022-11-12T04:50:31;6.20;;;3.77;;
18983;SDS011;9626;52.552;13.436;2022-11-12T04:53:16;7.97;;;4.17;;
18983;SDS011;9626;52.552;13.436;2022-11-12T04:56:00;7.00;;;3.80;;
18983;SDS011;9626;52.552;13.436;2022-11-12T04:58:45;6.47;;;3.90;;
18983;SDS011;9626;52.552;13.436;2022-11-12T05:01:29;4.60;;;3.70;;
18983;SDS011;9626;52.552;13.436;2022-11-12T05:04:13;5.63;;;3.70;;
18983;SDS011;9626;52.552;13.436;2022-11-12T05:06:58;5.03;;;3.40;;
18983;SDS011;9626;52.552;13.436;2022-11-12T05:09:44;6.57;;;3.67;;
18983;SDS011;9626;52.552;13.436;2022-11-12T05:12:28;7.17;;;4.50;;
18983;SDS011;9626;52.552;13.436;2022-11-12T05:15:12;7.80;;;5.60;;
18983;SDS011;9626;52.552;13.436;2022-11-12T05:17:57;7.63;;;4.93;;
18983;SDS011;9626;52.552;13.436;2022-11-12T05:20:41;4.90;;;3.80;;
18983;SDS011;9626;52.552;13.436;2022-11-12T05:23:25;7.17;;;4.10;;
18983;SDS011;9626;52.552;13.436;2022-11-12T05:26:10;6.93;;;3.77;;
18983;SDS011;9626;52.552;13.436;2022-11-12T05:28:54;6.90;;;3.97;;
18983;SDS011;9626;52.552;13.436;2022-11-12T05:31:38;6.97;;;4.13;;
18983;SDS011;9626;52.552;13.436;2022-11-12T05:34:23;8.97;;;3.93;;
18983;SDS011;9626;52.552;13.436;2022-11-12T05:37:07;6.37;;;3.80;;
18983;SDS011;9626;52.552;13.436;2022-11-12T05:39:53;5.23;;;4.00;;
18983;SDS011;9626;52.552;13.436;2022-11-12T05:42:38;4.47;;;3.93;;
18983;SDS011;9626;52.552;13.436;2022-11-12T05:45:22;7.43;;;4.63;;
18983;SDS011;9626;52.552;13.436;2022-11-12T05:48:06;7.90;;;4.27;;
18983;SDS011;9626;52.552;13.436;2022-11-12T05:50:51;5.90;;;4.20;;
18983;SDS011;9626;52.552;13.436;2022-11-12T05:53:36;6.00;;;4.07;;
18983;SDS011;9626;52.552;13.436;2022-11-12T05:56:20;4.77;;;3.63;;
18983;SDS011;9626;52.552;13.436;2022-11-12T05:59:05;5.53;;;3.93;;
18983;SDS011;9626;52.552;13.436;2022-11-12T06:01:51;7.30;;;4.43;;
18983;SDS011;9626;52.552;13.436;2022-11-12T06:04:36;6.33;;;4.07;;
18983;SDS011;9626;52.552;13.436;2022-11-12T06:07:20;7.37;;;4.37;;
18983;SDS011;9626;52.552;13.436;2022-11-12T06:10:05;9.13;;;4.30;;
18983;SDS011;9626;52.552;13.436;2022-11-12T06:12:49;7.27;;;4.17;;
18983;SDS011;9626;52.552;13.436;2022-11-12T06:15:35;8.17;;;4.03;;
18983;SDS011;9626;52.552;13.436;2022-11-12T06:18:19;4.97;;;3.80;;
18983;SDS011;9626;52.552;13.436;2022-11-12T06:21:05;7.40;;;4.17;;
18983;SDS011;9626;52.552;13.436;2022-11-12T06:24:03;7.87;;;5.30;;
18983;SDS011;9626;52.552;13.436;2022-11-12T06:26:47;5.97;;;3.83;;
18983;SDS011;9626;52.552;13.436;2022-11-12T06:29:32;5.90;;;4.20;;
18983;SDS011;9626;52.552;13.436;2022-11-12T06:32:16;7.27;;;4.43;;
18983;SDS011;9626;52.552;13.436;2022-11-12T06:35:01;5.87;;;4.03;;
18983;SDS011;9626;52.552;13.436;2022-11-12T06:37:46;8.90;;;4.20;;
18983;SDS011;9626;52.552;13.436;2022-11-12T06:40:32;4.67;;;4.03;;
18983;SDS011;9626;52.552;13.436;2022-11-12T06:43:17;7.73;;;4.47;;
18983;SDS011;9626;52.552;13.436;2022-11-12T06:46:02;7.40;;;4.60;;
18983;SDS011;9626;52.552;13.436;2022-11-12T06:48:48;7.17;;;4.53;;
18983;SDS011;9626;52.552;13.436;2022-11-12T06:51:33;7.07;;;4.67;;
18983;SDS011;9626;52.552;13.436;2022-11-12T06:54:17;10.27;;;4.20;;
18983;SDS011;9626;52.552;13.436;2022-11-12T06:57:01;7.00;;;4.83;;
18983;SDS011;9626;52.552;13.436;2022-11-12T06:59:46;7.10;;;4.90;;
18983;SDS011;9626;52.552;13.436;2022-11-12T07:02:30;6.60;;;4.33;;
18983;SDS011;9626;52.552;13.436;2022-11-12T07:05:15;5.97;;;4.63;;
18983;SDS011;9626;52.552;13.436;2022-11-12T07:07:59;16.33;;;8.70;;
18983;SDS011;9626;52.552;13.436;2022-11-12T07:10:44;9.73;;;6.43;;
18983;SDS011;9626;52.552;13.436;2022-11-12T07:13:29;7.70;;;5.10;;
18983;SDS011;9626;52.552;13.436;2022-11-12T07:16:15;8.20;;;4.27;;
18983;SDS011;9626;52.552;13.436;2022-11-12T07:19:02;10.77;;;5.80;;
18983;SDS011;9626;52.552;13.436;2022-11-12T07:21:46;9.27;;;4.93;;
18983;SDS011;9626;52.552;13.436;2022-11-12T07:24:30;7.50;;;4.70;;
18983;SDS011;9626;52.552;13.436;2022-11-12T07:27:15;6.57;;;4.87;;
18983;SDS011;9626;52.552;13.436;2022-11-12T07:29:59;8.63;;;4.93;;
18983;SDS011;9626;52.552;13.436;2022-11-12T07:32:43;11.50;;;5.43;;
18983;SDS011;9626;52.552;13.436;2022-11-12T07:35:28;9.40;;;5.27;;
18983;SDS011;9626;52.552;13.436;2022-11-12T07:38:12;11.63;;;7.37;;
18983;SDS011;9626;52.552;13.436;2022-11-12T07:43:47;9.30;;;5.97;;
18983;SDS011;9626;52.552;13.436;2022-11-12T07:46:33;9.87;;;5.70;;
18983;SDS011;9626;52.552;13.436;2022-11-12T07:49:17;9.57;;;5.83;;
18983;SDS011;9626;52.552;13.436;2022-11-12T07:52:02;8.70;;;5.50;;
18983;SDS011;9626;52.552;13.436;2022-11-12T07:54:47;8.57;;;6.13;;
18983;SDS011;9626;52.552;13.436;2022-11-12T07:57:32;10.63;;;5.80;;
18983;SDS011;9626;52.552;13.436;2022-11-12T08:00:17;8.77;;;5.83;;
18983;SDS011;9626;52.552;13.436;2022-11-12T08:03:01;9.60;;;5.93;;
18983;SDS011;9626;52.552;13.436;2022-11-12T08:05:46;9.93;;;5.80;;
18983;SDS011;9626;52.552;13.436;2022-11-12T08:08:30;10.13;;;5.80;;
18983;SDS011;9626;52.552;13.436;2022-11-12T08:11:14;9.30;;;5.83;;
18983;SDS011;9626;52.552;13.436;2022-11-12T08:13:59;9.20;;;5.77;;
18983;SDS011;9626;52.552;13.436;2022-11-12T08:16:44;10.40;;;5.73;;
18983;SDS011;9626;52.552;13.436;2022-11-12T08:19:29;13.20;;;6.37;;
18983;SDS011;9626;52.552;13.436;2022-11-12T08:22:14;9.40;;;5.63;;
18983;SDS011;9626;52.552;13.436;2022-11-12T08:24:58;9.13;;;6.00;;
18983;SDS011;9626;52.552;13.436;2022-11-12T08:27:42;8.67;;;5.53;;
18983;SDS011;9626;52.552;13.436;2022-11-12T08:30:27;10.87;;;6.20;;
18983;SDS011;9626;52.552;13.436;2022-11-12T08:33:12;8.70;;;5.80;;
18983;SDS011;9626;52.552;13.436;2022-11-12T08:35:57;11.63;;;6.60;;
18983;SDS011;9626;52.552;13.436;2022-11-12T08:38:42;16.97;;;9.57;;
18983;SDS011;9626;52.552;13.436;2022-11-12T08:41:26;11.00;;;6.27;;
18983;SDS011;9626;52.552;13.436;2022-11-12T08:44:11;10.37;;;6.67;;
18983;SDS011;9626;52.552;13.436;2022-11-12T08:46:56;12.70;;;7.10;;
18983;SDS011;9626;52.552;13.436;2022-11-12T08:49:40;11.93;;;8.13;;
18983;SDS011;9626;52.552;13.436;2022-11-12T08:52:25;13.80;;;8.73;;
18983;SDS011;9626;52.552;13.436;2022-11-12T08:55:09;14.07;;;9.67;;
18983;SDS011;9626;52.552;13.436;2022-11-12T08:57:53;15.07;;;10.17;;
18983;SDS011;9626;52.552;13.436;2022-11-12T09:00:41;17.03;;;10.90;;
18983;SDS011;9626;52.552;13.436;2022-11-12T09:03:26;16.77;;;10.17;;
18983;SDS011;9626;52.552;13.436;2022-11-12T09:06:10;17.10;;;10.27;;
18983;SDS011;9626;52.552;13.436;2022-11-12T09:08:55;15.17;;;10.67;;
18983;SDS011;9626;52.552;13.436;2022-11-12T09:11:39;15.90;;;11.03;;
18983;SDS011;9626;52.552;13.436;2022-11-12T09:14:24;14.73;;;9.93;;
18983;SDS011;9626;52.552;13.436;2022-11-12T09:17:08;20.30;;;10.87;;
18983;SDS011;9626;52.552;13.436;2022-11-12T09:19:53;17.63;;;10.07;;
18983;SDS011;9626;52.552;13.436;2022-11-12T09:22:37;19.17;;;10.47;;
18983;SDS011;9626;52.552;13.436;2022-11-12T09:25:22;18.80;;;9.63;;
18983;SDS011;9626;52.552;13.436;2022-11-12T09:28:07;21.43;;;10.30;;
18983;SDS011;9626;52.552;13.436;2022-11-12T09:30:53;17.17;;;9.67;;
18983;SDS011;9626;52.552;13.436;2022-11-12T09:33:38;15.37;;;8.90;;
18983;SDS011;9626;52.552;13.436;2022-11-12T09:36:22;15.67;;;9.33;;
18983;SDS011;9626;52.552;13.436;2022-11-12T09:39:07;15.07;;;8.43;;
18983;SDS011;9626;52.552;13.436;2022-11-12T09:41:51;15.70;;;8.37;;
18983;SDS011;9626;52.552;13.436;2022-11-12T09:44:36;14.63;;;7.70;;
18983;SDS011;9626;52.552;13.436;2022-11-12T09:48:07;14.53;;;8.20;;
18983;SDS011;9626;52.552;13.436;2022-11-12T09:50:36;14.00;;;8.20;;
18983;SDS011;9626;52.552;13.436;2022-11-12T09:53:31;12.50;;;6.57;;
18983;SDS011;9626;52.552;13.436;2022-11-12T09:56:26;29.30;;;11.33;;
18983;SDS011;9626;52.552;13.436;2022-11-12T09:59:13;11.00;;;6.23;;
18983;SDS011;9626;52.552;13.436;2022-11-12T10:02:01;12.83;;;6.30;;
18983;SDS011;9626;52.552;13.436;2022-11-12T10:11:29;10.53;;;5.40;;
18983;SDS011;9626;52.552;13.436;2022-11-12T10:18:20;12.73;;;6.30;;
18983;SDS011;9626;52.552;13.436;2022-11-12T10:21:24;10.63;;;5.37;;
18983;SDS011;9626;52.552;13.436;2022-11-12T10:24:12;9.57;;;5.57;;
18983;SDS011;9626;52.552;13.436;2022-11-12T10:26:56;10.60;;;4.77;;
18983;SDS011;9626;52.552;13.436;2022-11-12T10:29:46;8.13;;;4.37;;
18983;SDS011;9626;52.552;13.436;2022-11-12T10:32:36;11.70;;;6.47;;
18983;SDS011;9626;52.552;13.436;2022-11-12T10:35:25;11.83;;;5.67;;
18983;SDS011;9626;52.552;13.436;2022-11-12T10:38:13;9.77;;;5.67;;
18983;SDS011;9626;52.552;13.436;2022-11-12T10:41:20;9.87;;;4.80;;
18983;SDS011;9626;52.552;13.436;2022-11-12T10:44:12;10.77;;;4.93;;
18983;SDS011;9626;52.552;13.436;2022-11-12T10:47:40;10.23;;;5.33;;
18983;SDS011;9626;52.552;13.436;2022-11-12T10:50:43;9.73;;;4.40;;
18983;SDS011;9626;52.552;13.436;2022-11-12T10:53:35;8.90;;;6.30;;
18983;SDS011;9626;52.552;13.436;2022-11-12T10:56:28;15.80;;;7.10;;
18983;SDS011;9626;52.552;13.436;2022-11-12T11:01:59;10.40;;;6.20;;
18983;SDS011;9626;52.552;13.436;2022-11-12T11:04:44;12.07;;;7.17;;
18983;SDS011;9626;52.552;13.436;2022-11-12T11:07:29;12.23;;;7.30;;
18983;SDS011;9626;52.552;13.436;2022-11-12T11:13:21;13.53;;;6.23;;
18983;SDS011;9626;52.552;13.436;2022-11-12T11:16:11;12.37;;;7.30;;
18983;SDS011;9626;52.552;13.436;2022-11-12T11:19:02;11.33;;;6.90;;
18983;SDS011;9626;52.552;13.436;2022-11-12T11:24:38;14.40;;;6.07;;
18983;SDS011;9626;52.552;13.436;2022-11-12T11:27:45;11.23;;;5.40;;
18983;SDS011;9626;52.552;13.436;2022-11-12T11:30:47;11.53;;;6.50;;
18983;SDS011;9626;52.552;13.436;2022-11-12T11:36:32;13.23;;;6.77;;
18983;SDS011;9626;52.552;13.436;2022-11-12T11:39:29;13.60;;;7.20;;
18983;SDS011;9626;52.552;13.436;2022-11-12T11:49:21;12.23;;;6.73;;
18983;SDS011;9626;52.552;13.436;2022-11-12T11:58:14;11.60;;;6.30;;
18983;SDS011;9626;52.552;13.436;2022-11-12T12:01:20;11.63;;;7.10;;
18983;SDS011;9626;52.552;13.436;2022-11-12T12:07:58;12.17;;;6.20;;
18983;SDS011;9626;52.552;13.436;2022-11-12T12:10:52;10.83;;;5.90;;
18983;SDS011;9626;52.552;13.436;2022-11-12T12:16:51;11.20;;;5.93;;
18983;SDS011;9626;52.552;13.436;2022-11-12T12:23:11;8.40;;;5.17;;
18983;SDS011;9626;52.552;13.436;2022-11-12T12:26:05;13.00;;;5.73;;
18983;SDS011;9626;52.552;13.436;2022-11-12T12:38:26;10.03;;;5.43;;
18983;SDS011;9626;52.552;13.436;2022-11-12T12:44:13;11.60;;;6.07;;
18983;SDS011;9626;52.552;13.436;2022-11-12T12:46:57;11.20;;;6.23;;
18983;SDS011;9626;52.552;13.436;2022-11-12T12:49:45;10.57;;;5.70;;
18983;SDS011;9626;52.552;13.436;2022-11-12T12:55:42;11.57;;;6.10;;
18983;SDS011;9626;52.552;13.436;2022-11-12T12:58:29;11.13;;;6.07;;
18983;SDS011;9626;52.552;13.436;2022-11-12T13:01:27;13.13;;;6.40;;
18983;SDS011;9626;52.552;13.436;2022-11-12T13:04:14;12.57;;;5.87;;
18983;SDS011;9626;52.552;13.436;2022-11-12T13:06:59;9.50;;;5.40;;
18983;SDS011;9626;52.552;13.436;2022-11-12T13:09:43;10.80;;;5.57;;
18983;SDS011;9626;52.552;13.436;2022-11-12T13:16:06;12.77;;;6.27;;
18983;SDS011;9626;52.552;13.436;2022-11-12T13:21:35;10.30;;;5.40;;
18983;SDS011;9626;52.552;13.436;2022-11-12T13:24:25;9.57;;;5.37;;
18983;SDS011;9626;52.552;13.436;2022-11-12T13:33:22;10.07;;;5.30;;
18983;SDS011;9626;52.552;13.436;2022-11-12T13:36:24;8.97;;;5.30;;
18983;SDS011;9626;52.552;13.436;2022-11-12T13:39:15;10.90;;;5.17;;
18983;SDS011;9626;52.552;13.436;2022-11-12T13:42:08;8.40;;;5.60;;
18983;SDS011;9626;52.552;13.436;2022-11-12T13:45:15;9.60;;;5.67;;
18983;SDS011;9626;52.552;13.436;2022-11-12T13:48:04;9.77;;;4.83;;
18983;SDS011;9626;52.552;13.436;2022-11-12T13:50:51;10.17;;;5.60;;
18983;SDS011;9626;52.552;13.436;2022-11-12T13:53:38;11.83;;;5.67;;
18983;SDS011;9626;52.552;13.436;2022-11-12T13:56:27;12.60;;;5.53;;
18983;SDS011;9626;52.552;13.436;2022-11-12T13:59:14;13.73;;;6.00;;
18983;SDS011;9626;52.552;13.436;2022-11-12T14:02:08;9.90;;;5.67;;
18983;SDS011;9626;52.552;13.436;2022-11-12T14:05:03;8.63;;;5.43;;
18983;SDS011;9626;52.552;13.436;2022-11-12T14:08:08;12.03;;;5.93;;
18983;SDS011;9626;52.552;13.436;2022-11-12T14:20:00;8.73;;;5.40;;
18983;SDS011;9626;52.552;13.436;2022-11-12T14:22:55;12.60;;;7.60;;
18983;SDS011;9626;52.552;13.436;2022-11-12T14:25:49;10.50;;;5.67;;
18983;SDS011;9626;52.552;13.436;2022-11-12T14:28:35;11.93;;;5.70;;
18983;SDS011;9626;52.552;13.436;2022-11-12T14:31:22;16.17;;;6.40;;
18983;SDS011;9626;52.552;13.436;2022-11-12T14:34:17;9.73;;;6.10;;
18983;SDS011;9626;52.552;13.436;2022-11-12T14:37:03;12.33;;;6.33;;
18983;SDS011;9626;52.552;13.436;2022-11-12T14:39:48;11.13;;;7.20;;
18983;SDS011;9626;52.552;13.436;2022-11-12T14:42:34;15.40;;;10.03;;
18983;SDS011;9626;52.552;13.436;2022-11-12T14:45:19;19.73;;;9.40;;
18983;SDS011;9626;52.552;13.436;2022-11-12T14:48:05;10.93;;;6.43;;
18983;SDS011;9626;52.552;13.436;2022-11-12T14:50:57;12.67;;;8.97;;
18983;SDS011;9626;52.552;13.436;2022-11-12T14:53:53;12.93;;;7.00;;
18983;SDS011;9626;52.552;13.436;2022-11-12T14:56:43;15.37;;;7.13;;
18983;SDS011;9626;52.552;13.436;2022-11-12T14:59:30;11.50;;;7.23;;
18983;SDS011;9626;52.552;13.436;2022-11-12T15:02:20;14.40;;;7.47;;
18983;SDS011;9626;52.552;13.436;2022-11-12T15:05:15;15.57;;;7.97;;
18983;SDS011;9626;52.552;13.436;2022-11-12T15:08:03;16.37;;;8.43;;
18983;SDS011;9626;52.552;13.436;2022-11-12T15:10:51;12.53;;;7.50;;
18983;SDS011;9626;52.552;13.436;2022-11-12T15:13:36;12.77;;;8.47;;
18983;SDS011;9626;52.552;13.436;2022-11-12T15:16:24;16.43;;;9.10;;
18983;SDS011;9626;52.552;13.436;2022-11-12T15:19:18;15.73;;;8.57;;
18983;SDS011;9626;52.552;13.436;2022-11-12T15:22:15;14.00;;;8.27;;
18983;SDS011;9626;52.552;13.436;2022-11-12T15:28:11;17.20;;;7.67;;
18983;SDS011;9626;52.552;13.436;2022-11-12T15:31:16;17.60;;;8.67;;
18983;SDS011;9626;52.552;13.436;2022-11-12T15:40:05;15.70;;;8.63;;
18983;SDS011;9626;52.552;13.436;2022-11-12T15:42:55;18.73;;;9.70;;
18983;SDS011;9626;52.552;13.436;2022-11-12T15:45:41;18.37;;;9.23;;
18983;SDS011;9626;52.552;13.436;2022-11-12T15:48:26;14.93;;;8.40;;
18983;SDS011;9626;52.552;13.436;2022-11-12T15:51:11;15.67;;;8.97;;
18983;SDS011;9626;52.552;13.436;2022-11-12T15:53:55;16.53;;;9.17;;
18983;SDS011;9626;52.552;13.436;2022-11-12T15:56:40;18.20;;;9.57;;
18983;SDS011;9626;52.552;13.436;2022-11-12T15:59:24;16.57;;;9.43;;
18983;SDS011;9626;52.552;13.436;2022-11-12T16:02:12;15.60;;;9.43;;
18983;SDS011;9626;52.552;13.436;2022-11-12T16:04:57;16.93;;;9.17;;
18983;SDS011;9626;52.552;13.436;2022-11-12T16:07:41;15.77;;;9.50;;
18983;SDS011;9626;52.552;13.436;2022-11-12T16:10:26;17.30;;;9.07;;
18983;SDS011;9626;52.552;13.436;2022-11-12T16:13:32;16.30;;;9.47;;
18983;SDS011;9626;52.552;13.436;2022-11-12T16:16:16;19.07;;;10.47;;
18983;SDS011;9626;52.552;13.436;2022-11-12T16:19:01;16.83;;;10.00;;
18983;SDS011;9626;52.552;13.436;2022-11-12T16:21:45;15.60;;;10.07;;
18983;SDS011;9626;52.552;13.436;2022-11-12T16:24:30;19.37;;;9.87;;
18983;SDS011;9626;52.552;13.436;2022-11-12T16:27:14;19.37;;;10.10;;
18983;SDS011;9626;52.552;13.436;2022-11-12T16:31:29;17.67;;;10.43;;
18983;SDS011;9626;52.552;13.436;2022-11-12T16:34:13;18.97;;;10.23;;
18983;SDS011;9626;52.552;13.436;2022-11-12T16:36:58;21.30;;;11.17;;
18983;SDS011;9626;52.552;13.436;2022-11-12T16:39:42;18.20;;;10.43;;
18983;SDS011;9626;52.552;13.436;2022-11-12T16:42:27;20.90;;;10.57;;
18983;SDS011;9626;52.552;13.436;2022-11-12T16:45:12;18.03;;;10.77;;
18983;SDS011;9626;52.552;13.436;2022-11-12T16:47:58;19.50;;;10.63;;
18983;SDS011;9626;52.552;13.436;2022-11-12T16:50:43;21.33;;;10.87;;
18983;SDS011;9626;52.552;13.436;2022-11-12T16:53:28;20.80;;;12.73;;
18983;SDS011;9626;52.552;13.436;2022-11-12T16:56:17;21.40;;;12.53;;
18983;SDS011;9626;52.552;13.436;2022-11-12T16:59:04;20.67;;;13.00;;
18983;SDS011;9626;52.552;13.436;2022-11-12T17:01:49;24.03;;;13.27;;
18983;SDS011;9626;52.552;13.436;2022-11-12T17:04:33;21.43;;;11.97;;
18983;SDS011;9626;52.552;13.436;2022-11-12T17:07:18;21.30;;;11.97;;
18983;SDS011;9626;52.552;13.436;2022-11-12T17:10:02;25.17;;;13.03;;
18983;SDS011;9626;52.552;13.436;2022-11-12T17:12:47;20.87;;;11.97;;
18983;SDS011;9626;52.552;13.436;2022-11-12T17:15:31;25.03;;;12.40;;
18983;SDS011;9626;52.552;13.436;2022-11-12T17:18:16;24.13;;;12.70;;
18983;SDS011;9626;52.552;13.436;2022-11-12T17:21:07;22.07;;;12.50;;
18983;SDS011;9626;52.552;13.436;2022-11-12T17:23:59;24.47;;;13.17;;
18983;SDS011;9626;52.552;13.436;2022-11-12T17:26:44;24.07;;;13.03;;
18983;SDS011;9626;52.552;13.436;2022-11-12T17:29:29;24.40;;;13.60;;
18983;SDS011;9626;52.552;13.436;2022-11-12T17:32:13;21.37;;;13.83;;
18983;SDS011;9626;52.552;13.436;2022-11-12T17:34:58;24.47;;;13.83;;
18983;SDS011;9626;52.552;13.436;2022-11-12T17:37:42;23.50;;;13.17;;
18983;SDS011;9626;52.552;13.436;2022-11-12T17:40:27;21.83;;;13.60;;
18983;SDS011;9626;52.552;13.436;2022-11-12T17:43:12;22.90;;;13.27;;
18983;SDS011;9626;52.552;13.436;2022-11-12T17:45:56;21.70;;;13.13;;
18983;SDS011;9626;52.552;13.436;2022-11-12T17:48:41;25.43;;;14.87;;
18983;SDS011;9626;52.552;13.436;2022-11-12T17:51:26;26.50;;;15.50;;
18983;SDS011;9626;52.552;13.436;2022-11-12T17:54:12;24.00;;;14.30;;
18983;SDS011;9626;52.552;13.436;2022-11-12T17:56:57;27.00;;;14.10;;
18983;SDS011;9626;52.552;13.436;2022-11-12T17:59:42;30.93;;;14.53;;
18983;SDS011;9626;52.552;13.436;2022-11-12T18:02:27;26.93;;;13.53;;
18983;SDS011;9626;52.552;13.436;2022-11-12T18:05:12;24.00;;;14.03;;
18983;SDS011;9626;52.552;13.436;2022-11-12T18:07:57;23.47;;;14.37;;
18983;SDS011;9626;52.552;13.436;2022-11-12T18:10:41;22.03;;;13.93;;
18983;SDS011;9626;52.552;13.436;2022-11-12T18:13:28;22.87;;;14.60;;
18983;SDS011;9626;52.552;13.436;2022-11-12T18:16:34;25.30;;;15.43;;
18983;SDS011;9626;52.552;13.436;2022-11-12T18:19:17;25.50;;;15.63;;
18983;SDS011;9626;52.552;13.436;2022-11-12T18:22:01;35.27;;;17.57;;